Wilson Commons Park, Washoe Valley, Nevada Weather observations

Data are for 10 minute period ending at time listed.
 Day   Time   Solar   Ave.   Ave.  Ave.  Vector  Max.   Baro.   Total    
  of    of     Rad.   Air    Rel.  Wind   Wind   Wind  Press.  Precip.   
Year   Day            Temp.  Hum.  Speed  Dir.   Gust                    
2026   (PST)  Kw/m2    F      %     mph   deg.    mph    mb.     in.     
-------------------------------------------------------------------------
 129   15:40   0.69   80.0    18    2.0    34     4.2   99999.0    0.00 
 129   15:50   0.65   78.6    18    2.3    33     4.6   99999.0    0.00 
 129   16:00   0.62   77.8    16    2.0    40     4.6   99999.0    0.00 
 129   16:10   0.59   78.4    16    1.7    39     3.5   99999.0    0.00 
 129   16:20   0.55   79.0    14    0.9    34     2.4   99999.0    0.00 
 129   16:30   0.52   79.3    14    1.0    33     2.1   99999.0    0.00 
 129   16:40   0.47   80.2    17    1.5    33     3.1   99999.0    0.00 
 129   16:50   0.42   80.0    15    2.4    33     4.2   99999.0    0.00 
 129   17:00   0.41   79.8    14    1.5    32     3.1   99999.0    0.00 
 129   17:10   0.37   79.3    14    1.8    32     3.1   99999.0    0.00 
 129   17:20   0.33   79.3    16    1.5    32     2.4   99999.0    0.00 
 129   17:30   0.28   77.1    22    2.7    32     3.5   99999.0    0.00 
 129   17:40   0.26   75.8    28    1.9    32     2.8   99999.0    0.00 
 129   17:50   0.22   74.4    28    1.9    32     2.8   99999.0    0.00 
 129   18:00   0.08   71.7    32    2.3    32     3.5   99999.0    0.00 
 129   18:10   0.03   67.4    34    2.1    34     3.1   99999.0    0.00 
 129   18:20   0.03   65.2    34    0.5    33     1.7   99999.0    0.00 
 129   18:30   0.02   63.3    40    0.1    33     1.3   99999.0    0.00 
 129   18:40   0.02   62.5    40    1.2    33     3.5   99999.0    0.00 
 129   18:50   0.01   61.0    47    2.0    33     3.5   99999.0    0.00 
 129   19:00   0.01   59.8    56    1.5    33     4.2   99999.0    0.00 
 129   19:10   0.01   59.4    46    3.1    33     4.2   99999.0    0.00 
 129   19:20   0.00   59.6    39    3.6    33     4.9   99999.0    0.00 
 129   19:30   0.00   58.5    41    1.1    33     2.8   99999.0    0.00 
 129   19:40   0.00   57.4    39    1.6    33     4.2   99999.0    0.00 
 129   19:50   0.00   57.6    37    0.7    33     2.4   99999.0    0.00 
 129   20:00   0.00   56.6    40    0.2    33     1.0   99999.0    0.00 
 129   20:10   0.00   55.5    42    1.4    33     2.4   99999.0    0.00 
 129   20:20   0.00   55.9    43    2.0    33     4.2   99999.0    0.00 
 129   20:30   0.00   55.3    46    2.1    33     4.2   99999.0    0.00 
 129   20:40   0.00   55.7    41    1.2    33     2.8   99999.0    0.00 
 129   20:50   0.00   54.9    43    1.9    33     3.5   99999.0    0.00 
 129   21:00   0.00   53.6    47    1.6    33     3.1   99999.0    0.00 
 129   21:10   0.00   51.6    58    1.8    33     3.8   99999.0    0.00 
 129   21:20   0.00   51.2    57    0.9    33     2.8   99999.0    0.00 
 129   21:30   0.00   50.8    52    3.0    32     5.3   99999.0    0.00 
 129   21:40   0.00   49.5    58    1.7    33     3.1   99999.0    0.00 
 129   21:50   0.00   49.1    63    1.6    33     4.6   99999.0    0.00 
 129   22:00   0.00   48.3    64    1.6    33     3.1   99999.0    0.00 
 129   22:10   0.00   48.2    62    1.9    33     5.3   99999.0    0.00 
 129   22:20   0.00   48.4    61    2.2    33     3.8   99999.0    0.00 
 129   22:30   0.00   49.0    55    1.3    33     3.1   99999.0    0.00 
 129   22:40   0.00   49.2    55    1.0    33     2.4   99999.0    0.00 
 129   22:50   0.00   47.0    66    1.1    33     3.5   99999.0    0.00 
 129   23:00   0.00   46.1    66    1.1    33     2.4   99999.0    0.00 
 129   23:10   0.00   45.2    68    1.4    33     3.5   99999.0    0.00 
 129   23:20   0.00   44.3    72    1.3    33     3.1   99999.0    0.00 
 129   23:30   0.00   43.3    75    1.4    33     4.2   99999.0    0.00 
 129   23:40   0.00   43.7    76    0.9    33     2.8   99999.0    0.00 
 129   23:50   0.00   44.5    70    1.9    33     3.1   99999.0    0.00 
 130    0:00   0.00   44.3    68    1.3    33     3.1   99999.0    0.00 
 130    0:10   0.00   43.8    71    1.4    33     2.8   99999.0    0.00 
 130    0:20   0.00   42.7    77    0.9    32     2.4   99999.0    0.00 
 130    0:30   0.00   42.7    74    1.3    32     3.5   99999.0    0.00 
 130    0:40   0.00   43.1    74    1.9    32     3.5   99999.0    0.00 
 130    0:50   0.00   44.4    66    1.7    32     3.1   99999.0    0.00 
 130    1:00   0.00   46.3    56    1.6    32     3.8   99999.0    0.00 
 130    1:10   0.00   44.4    67    1.9    33     3.8   99999.0    0.00 
 130    1:20   0.00   43.5    70    0.9    32     2.8   99999.0    0.00 
 130    1:30   0.00   42.4    71    0.4    32     1.7   99999.0    0.00 
 130    1:40   0.00   42.3    68    1.5    32     3.8   99999.0    0.00 
 130    1:50   0.00   43.8    62    1.2    32     3.1   99999.0    0.00 
 130    2:00   0.00   42.3    73    1.8    33     3.8   99999.0    0.00 
 130    2:10   0.00   41.8    81    1.7    32     2.8   99999.0    0.00 
 130    2:20   0.00   41.9    75    1.1    32     3.5   99999.0    0.00 
 130    2:30   0.00   41.1    72    0.6    32     3.1   99999.0    0.00 
 130    2:40   0.00   41.3    73    1.7    32     3.8   99999.0    0.00 
 130    2:50   0.00   41.1    73    2.8    32     3.8   99999.0    0.00 
 130    3:00   0.00   40.8    74    2.3    32     3.1   99999.0    0.00 
 130    3:10   0.00   39.5    75    0.7    32     2.8   99999.0    0.00 
 130    3:20   0.00   39.3    75    0.7    32     2.4   99999.0    0.00 
 130    3:30   0.00   40.0    85    0.5    32     3.5   99999.0    0.00 
 130    3:40   0.00   40.1    84    0.2    32     1.3   99999.0    0.00 
 130    3:50   0.00   41.0    76    1.3    32     2.8   99999.0    0.00 
 130    4:00   0.00   41.5    75    0.6    32     1.7   99999.0    0.00 
 130    4:10   0.00   40.9    75    0.5    32     2.8   99999.0    0.00 
 130    4:20   0.00   40.9    78    1.2    32     2.1   99999.0    0.00 
 130    4:30   0.00   41.5    76    1.3    32     3.1   99999.0    0.00 
 130    4:40   0.00   40.9    75    1.6    32     3.5   99999.0    0.00 
 130    4:50   0.00   39.5    79    2.0    32     3.8   99999.0    0.00 
 130    5:00   0.00   39.6    86    1.0    33     2.8   99999.0    0.00 
 130    5:10   0.01   40.4    85    0.6    33     2.4   99999.0    0.00 
 130    5:20   0.02   39.6    83    1.7    33     3.1   99999.0    0.00 
 130    5:30   0.06   41.1    81    1.0    33     2.4   99999.0    0.00 
 130    5:40   0.09   43.1    74    0.5    33     2.1   99999.0    0.00 
 130    5:50   0.13   44.3    76    1.7    33     3.5   99999.0    0.00 
 130    6:00   0.17   45.8    75    1.7    33     3.5   99999.0    0.00 
 130    6:10   0.20   49.4    65    0.9    33     2.4   99999.0    0.00 
 130    6:20   0.23   53.3    53    0.5    33     2.1   99999.0    0.00 
 130    6:30   0.27   55.9    46    2.0    33     4.6   99999.0    0.00 
 130    6:40   0.31   56.5    47    2.6    32     4.6   99999.0    0.00 
 130    6:50   0.34   58.4    51    2.5    32     3.5   99999.0    0.00 
 130    7:00   0.38   59.5    48    3.2    32     4.6   99999.0    0.00 
 130    7:10   0.42   60.5    43    2.3    32     3.8   99999.0    0.00 
 130    7:20   0.45   61.1    38    2.0    32     3.1   99999.0    0.00 
 130    7:30   0.49   61.6    39    2.8    30     4.6   99999.0    0.00 
 130    7:40   0.52   63.4    38    2.7    31     4.6   99999.0    0.00 
 130    7:50   0.56   64.7    36    2.1    33     4.6   99999.0    0.00 
 130    8:00   0.59   65.6    35    2.4    33     4.2   99999.0    0.00 
 130    8:10   0.62   66.6    33    3.3    34     6.0   99999.0    0.00 
 130    8:20   0.66   67.1    33    2.5    36     4.6   99999.0    0.00 
 130    8:30   0.69   68.6    31    1.7    34     3.8   99999.0    0.00 
 130    8:40   0.72   69.0    30    1.9    32     3.8   99999.0    0.00 
 130    8:50   0.75   70.2    32    1.4    32     2.8   99999.0    0.00 
 130    9:00   0.78   70.9    32    2.0    32     4.2   99999.0    0.00 
 130    9:10   0.81   71.9    31    1.6    32     3.1   99999.0    0.00 
 130    9:20   0.83   71.7    28    2.0    32     3.5   99999.0    0.00 
 130    9:30   0.86   72.5    26    2.4    33     5.3   99999.0    0.00 
 130    9:40   0.89   72.5    24    3.9    35     6.7   99999.0    0.00 
 130    9:50   0.91   73.7    24    2.7    34     4.9   99999.0    0.00 
 130   10:00   0.93   75.0    22    2.0    32     3.8   99999.0    0.00 
 130   10:10   0.95   75.6    25    2.2    32     3.8   99999.0    0.00 
 130   10:20   0.96   75.2    24    2.5    42     6.0   99999.0    0.00 
 130   10:30   0.97   76.1    22    3.0    36     7.1   99999.0    0.00 
 130   10:40   1.00   76.2    19    3.4    35     6.3   99999.0    0.00 
 130   10:50   1.01   76.5    21    4.0    40     7.1   99999.0    0.00 
 130   11:00   1.02   76.4    21    4.1    35     7.1   99999.0    0.00 
 130   11:10   1.02   77.3    21    3.6    36     7.8   99999.0    0.00 
 130   11:20   1.04   78.0    21    4.1    37     6.7   99999.0    0.00 
 130   11:30   1.03   77.8    22    5.4    38     9.6   99999.0    0.00 
 130   11:40   1.05   77.8    22    7.3    44     9.9   99999.0    0.00 
 130   11:50   1.06   78.2    21    6.6    57    10.3   99999.0    0.00 
 130   12:00   1.06   78.9    22    4.3    62     7.8   99999.0    0.00 
 130   12:10   1.06   80.0    20    7.7    49    15.3   99999.0    0.00 
 130   12:20   1.06   80.6    20    9.2    57    16.4   99999.0    0.00 
 130   12:30   1.06   80.5    20   10.2    58    16.7   99999.0    0.00 
 130   12:40   1.05   80.6    20   11.2    59    18.5   99999.0    0.00 
 130   12:50   1.04   80.7    21   10.2    56    18.5   99999.0    0.00 
 130   13:00   1.03   80.9    20   11.9    62    19.9   99999.0    0.00 
 130   13:10   1.02   81.0    21   10.6    61    18.9   99999.0    0.00 
 130   13:20   1.01   81.0    21   12.3    55    24.2   99999.0    0.00 
 130   13:30   0.99   81.0    21   13.0    54    18.5   99999.0    0.00 
 130   13:40   0.98   80.9    23   13.3    55    21.7   99999.0    0.00 
 130   13:50   0.96   80.7    23   12.9    51    20.3   99999.0    0.00 
 130   14:00   0.95   81.1    22   11.6    50    18.9   99999.0    0.00 
 130   14:10   0.93   81.1    22   13.3    49    20.3   99999.0    0.00 
 130   14:20   0.91   81.4    21   12.3    44    22.8   99999.0    0.00 
 130   14:30   0.89   81.5    21   12.6    47    18.9   99999.0    0.00 
 130   14:40   0.86   81.4    21   13.8    46    24.2   99999.0    0.00 
 130   14:50   0.84   81.6    22   11.5    44    21.0   99999.0    0.00 
 130   15:00   0.81   81.4    20   12.0    44    19.6   99999.0    0.00 
 130   15:10   0.79   81.3    20   14.0    44    23.5   99999.0    0.00 
 130   15:20   0.76   81.0    20   14.1    45    21.7   99999.0    0.00 
 130   15:30   0.73   80.8    21   15.3    46    24.6   99999.0    0.00 

Return to Wilson Commons Park graphs page.


Western Regional Climate Center,wrcc@dri.edu